Terminal Aerodrome Forecast
Issued by NWS

Home | Current Version | Previous Version | Text Only | Print | Product List | Glossary On
Versions: 1 2 3 4 5 6 7 8 9 10 11 12 13 14
000
FTAK31 PAJN 011700
TAFASI
TAF
PASI 011721Z 0118/0218 31005KT P6SM SCT025 BKN050
     FM020000 14010KT P6SM VCSH BKN025 OVC050
     FM020200 14012G22KT 6SM -RA SCT015 BKN025 OVC050
     FM020600 16015G25KT 4SM -RA BR BKN015 OVC025
     FM021700 16018G25KT 4SM -RA BR BKN015 OVC025=

USA.gov is the U.S. government's official web portal to all federal, state and local government web resources and services.